ADDS METAR Data INFO
IDs: Format: Raw Decoded Include TAF

Data at: 0914 UTC 20 Jan 2018

METAR for:KLHQ (Lancaster/Fairfield, OH, US)
Text:KLHQ 200853Z AUTO 21007KT 10SM CLR 03/M04 A3002 RMK AO2 SLP170 T00281039 53006
Temperature: 2.8°C ( 37°F)
Dewpoint: -3.9°C ( 25°F) [RH = 61%]
Pressure (altimeter):30.02 inches Hg (1016.7 mb) [Sea level pressure: 1017.0 mb]
Winds:from the SSW (210 degrees) at 8 MPH (7 knots; 3.6 m/s)
Visibility:10 or more sm (16+ km)
Ceiling:at least 12,000 feet AGL
Clouds:sky clear below 12,000 feet AGL
QC Flag:automated observation with no human augmentation